createdAt,value
2022-12-01T00:01:12.942Z,36.42
2022-12-01T00:03:39.938Z,36.92
2022-12-01T00:06:12.294Z,39.08
2022-12-01T00:08:39.208Z,40.00
2022-12-01T00:11:07.253Z,37.50
2022-12-01T00:13:34.766Z,37.47
2022-12-01T00:16:16.264Z,34.65
2022-12-01T00:18:43.455Z,38.42
2022-12-01T00:21:18.735Z,40.15
2022-12-01T00:23:49.486Z,36.88
2022-12-01T00:26:17.307Z,37.25
2022-12-01T00:28:43.869Z,35.75
2022-12-01T00:31:11.878Z,36.78
2022-12-01T00:33:39.647Z,39.58
2022-12-01T00:36:07.476Z,36.97
2022-12-01T00:38:35.210Z,35.42
2022-12-01T00:41:02.198Z,39.67
2022-12-01T00:43:28.745Z,42.15
2022-12-01T00:45:56.376Z,42.03
2022-12-01T00:48:23.409Z,36.85
2022-12-01T00:50:54.190Z,33.97
2022-12-01T00:53:21.634Z,36.65
2022-12-01T00:55:48.267Z,37.33
2022-12-01T00:58:15.042Z,37.33
2022-12-01T01:00:42.776Z,37.78
2022-12-01T01:03:09.500Z,38.88
2022-12-01T01:05:40.827Z,39.00
2022-12-01T01:08:09.510Z,45.15
2022-12-01T01:10:44.817Z,34.63
2022-12-01T01:13:13.655Z,36.47
2022-12-01T01:15:41.158Z,35.92
2022-12-01T01:18:09.558Z,37.38
2022-12-01T01:20:36.198Z,35.60
2022-12-01T01:23:02.886Z,35.38
2022-12-01T01:25:31.215Z,38.63
2022-12-01T01:27:57.836Z,35.33
2022-12-01T01:30:24.504Z,31.77
2022-12-01T01:32:51.177Z,34.20
2022-12-01T01:35:17.826Z,33.65
2022-12-01T01:37:44.639Z,35.20
2022-12-01T01:40:11.631Z,32.45
2022-12-01T01:42:38.167Z,34.22
2022-12-01T01:45:14.574Z,33.88
2022-12-01T01:47:41.350Z,33.35
2022-12-01T01:50:13.706Z,33.00
2022-12-01T01:52:48.069Z,30.08
2022-12-01T01:55:15.522Z,29.70
2022-12-01T01:57:43.177Z,32.38
2022-12-01T02:00:16.008Z,36.50
2022-12-01T02:02:44.668Z,35.90
2022-12-01T02:05:32.547Z,33.15
2022-12-01T02:08:01.287Z,36.83
2022-12-01T02:10:54.938Z,37.05
2022-12-01T02:13:39.503Z,39.00
2022-12-01T02:16:19.191Z,35.03
2022-12-01T02:18:55.192Z,31.88
2022-12-01T02:21:44.039Z,39.55
2022-12-01T02:24:34.717Z,35.00
2022-12-01T02:27:06.866Z,38.17
2022-12-01T02:29:41.612Z,43.58
2022-12-01T02:32:32.983Z,40.22
2022-12-01T02:35:11.750Z,38.78
2022-12-01T02:38:17.024Z,51.05
2022-12-01T02:40:56.260Z,45.47
2022-12-01T02:43:32.885Z,37.70
2022-12-01T02:46:07.013Z,37.67
2022-12-01T02:48:35.533Z,47.22
2022-12-01T02:51:11.862Z,39.20
2022-12-01T02:53:39.025Z,43.42
2022-12-01T02:56:12.304Z,55.50
2022-12-01T02:58:39.145Z,52.55
2022-12-01T03:01:43.245Z,55.97
2022-12-01T03:04:37.869Z,52.38
2022-12-01T03:07:48.873Z,44.88
2022-12-01T03:10:36.994Z,52.22
2022-12-01T03:13:12.386Z,52.85
2022-12-01T03:16:08.198Z,47.47
2022-12-01T03:18:37.089Z,52.00
2022-12-01T03:21:16.368Z,47.13
2022-12-01T03:23:47.031Z,47.90
2022-12-01T03:26:21.400Z,50.97
2022-12-01T03:28:54.482Z,47.25
2022-12-01T03:31:26.874Z,44.05
2022-12-01T03:34:03.228Z,48.72
2022-12-01T03:36:42.090Z,45.95
2022-12-01T03:39:14.795Z,45.38
2022-12-01T03:41:52.801Z,39.03
2022-12-01T03:44:22.673Z,45.90
2022-12-01T03:46:57.977Z,45.35
2022-12-01T03:49:25.684Z,42.75
2022-12-01T03:52:38.772Z,47.55
2022-12-01T03:55:13.054Z,48.30
2022-12-01T03:57:45.516Z,50.17
2022-12-01T04:00:14.441Z,52.67
2022-12-01T04:02:41.596Z,43.28
2022-12-01T04:05:09.263Z,44.03
2022-12-01T04:07:37.613Z,44.47
2022-12-01T04:10:05.781Z,42.13
2022-12-01T04:12:35.367Z,44.80
2022-12-01T04:15:05.991Z,43.83
2022-12-01T04:17:32.679Z,42.33
2022-12-01T04:19:59.474Z,39.35
2022-12-01T04:22:26.746Z,43.65
2022-12-01T04:24:53.759Z,43.65
2022-12-01T04:27:20.921Z,45.65
2022-12-01T04:29:47.924Z,37.58
2022-12-01T04:32:15.202Z,48.50
2022-12-01T04:34:41.959Z,41.40
2022-12-01T04:37:09.918Z,41.10
2022-12-01T04:39:36.593Z,41.20
2022-12-01T04:42:03.385Z,40.38
2022-12-01T04:44:34.582Z,42.58
2022-12-01T04:47:02.619Z,35.72
2022-12-01T04:49:29.202Z,45.75
2022-12-01T04:51:55.964Z,39.75
2022-12-01T04:54:22.786Z,40.58
2022-12-01T04:56:49.488Z,43.25
2022-12-01T04:59:16.558Z,37.53
2022-12-01T05:01:43.285Z,40.40
2022-12-01T05:04:12.901Z,43.40
2022-12-01T05:06:40.306Z,36.13
2022-12-01T05:09:07.818Z,39.70
2022-12-01T05:11:34.500Z,40.40
2022-12-01T05:14:01.131Z,47.60
2022-12-01T05:16:31.542Z,45.20
2022-12-01T05:19:23.024Z,47.80
2022-12-01T05:21:50.790Z,43.10
2022-12-01T05:24:18.926Z,45.20
2022-12-01T05:26:46.067Z,50.05
2022-12-01T05:29:13.254Z,47.33
2022-12-01T05:31:40.108Z,49.42
2022-12-01T05:34:07.908Z,44.47
2022-12-01T05:36:34.795Z,46.40
2022-12-01T05:39:01.394Z,43.25
2022-12-01T05:41:28.100Z,43.83
2022-12-01T05:43:54.682Z,40.35
2022-12-01T05:46:21.351Z,42.83
2022-12-01T05:48:47.997Z,43.22
2022-12-01T05:51:16.366Z,47.45
2022-12-01T05:53:43.275Z,46.53
2022-12-01T05:56:09.953Z,47.55
2022-12-01T05:58:36.789Z,40.85
2022-12-01T06:01:03.777Z,54.80
2022-12-01T06:03:30.412Z,39.20
2022-12-01T06:05:57.040Z,47.03
2022-12-01T06:08:23.678Z,39.33
2022-12-01T06:10:50.295Z,48.58
2022-12-01T06:13:16.959Z,48.63
2022-12-01T06:15:43.593Z,47.72
2022-12-01T06:18:10.408Z,44.33
2022-12-01T06:20:37.123Z,43.10
2022-12-01T06:23:03.939Z,50.97
2022-12-01T06:25:30.663Z,54.20
2022-12-01T06:27:58.246Z,43.67
2022-12-01T06:30:25.159Z,51.47
2022-12-01T06:32:51.762Z,46.63
2022-12-01T06:35:18.363Z,39.75
2022-12-01T06:37:44.977Z,52.60
2022-12-01T06:40:12.078Z,46.15
2022-12-01T06:42:38.720Z,49.70
2022-12-01T06:45:05.809Z,51.33
2022-12-01T06:47:32.481Z,43.90
2022-12-01T06:49:59.139Z,44.10
2022-12-01T06:52:25.850Z,41.78
2022-12-01T06:54:52.405Z,43.67
2022-12-01T06:57:19.354Z,48.22
2022-12-01T06:59:46.314Z,43.53
2022-12-01T07:02:13.483Z,47.55
2022-12-01T07:04:40.109Z,46.72
2022-12-01T07:07:06.743Z,47.40
2022-12-01T07:09:34.056Z,49.22
2022-12-01T07:12:00.855Z,63.50
2022-12-01T07:14:27.892Z,60.20
2022-12-01T07:16:54.761Z,76.78
2022-12-01T07:19:21.482Z,68.43
2022-12-01T07:21:48.108Z,58.35
2022-12-01T07:24:14.923Z,75.68
2022-12-01T07:26:42.667Z,76.32
2022-12-01T07:29:10.810Z,67.05
2022-12-01T07:31:38.539Z,86.22
2022-12-01T07:34:06.248Z,61.50
2022-12-01T07:36:33.139Z,69.10
2022-12-01T07:39:04.059Z,66.57
2022-12-01T07:41:30.635Z,67.07
2022-12-01T07:43:57.221Z,57.85
2022-12-01T07:46:26.390Z,52.10
2022-12-01T07:48:54.083Z,66.43
2022-12-01T07:51:22.562Z,66.60
2022-12-01T07:53:50.490Z,88.03
2022-12-01T07:56:18.561Z,52.10
2022-12-01T07:58:45.173Z,42.30
2022-12-01T08:01:18.037Z,49.22
2022-12-01T08:03:45.218Z,51.08
2022-12-01T08:06:12.267Z,44.65
2022-12-01T08:08:41.015Z,43.38
2022-12-01T08:11:17.284Z,47.60
2022-12-01T08:13:44.682Z,43.10
2022-12-01T08:16:14.404Z,47.55
2022-12-01T08:18:42.588Z,47.55
2022-12-01T08:21:12.310Z,51.08
2022-12-01T08:23:39.498Z,49.08
2022-12-01T08:26:17.646Z,51.20
2022-12-01T08:28:45.245Z,55.90
2022-12-01T08:31:21.108Z,52.60
2022-12-01T08:33:48.698Z,49.83
2022-12-01T08:36:15.678Z,51.33
2022-12-01T08:38:46.987Z,61.30
2022-12-01T08:41:14.917Z,58.30
2022-12-01T08:44:00.444Z,59.22
2022-12-01T08:46:37.619Z,58.97
2022-12-01T08:49:05.848Z,55.20
2022-12-01T08:51:32.909Z,68.72
2022-12-01T08:54:00.526Z,69.93
2022-12-01T08:56:31.687Z,57.17
2022-12-01T08:58:58.270Z,58.43
2022-12-01T09:01:28.570Z,64.15
2022-12-01T09:04:05.736Z,54.05
2022-12-01T09:06:42.217Z,63.20
2022-12-01T09:09:10.872Z,61.50
2022-12-01T09:11:37.584Z,59.50
2022-12-01T09:14:04.314Z,61.78
2022-12-01T09:16:31.191Z,54.45
2022-12-01T09:18:57.997Z,54.92
2022-12-01T09:21:32.759Z,56.95
2022-12-01T09:24:00.691Z,60.97
2022-12-01T09:26:28.181Z,53.78
2022-12-01T09:28:57.338Z,48.15
2022-12-01T09:31:24.427Z,48.63
2022-12-01T09:33:59.401Z,44.08
2022-12-01T09:36:26.938Z,49.90
2022-12-01T09:38:53.822Z,53.97
2022-12-01T09:41:25.056Z,58.78
2022-12-01T09:44:10.504Z,58.65
2022-12-01T09:46:41.768Z,68.03
2022-12-01T09:49:18.789Z,58.90
2022-12-01T09:51:45.524Z,60.10
2022-12-01T09:54:14.286Z,72.68
2022-12-01T09:56:49.283Z,67.63
2022-12-01T09:59:23.610Z,69.13
2022-12-01T10:02:00.204Z,60.65
2022-12-01T10:04:42.458Z,67.53
2022-12-01T10:09:56.254Z,68.97
2022-12-01T10:12:27.687Z,65.57
2022-12-01T10:15:02.240Z,63.72
2022-12-01T10:17:51.612Z,64.85
2022-12-01T10:20:51.916Z,62.38
2022-12-01T10:23:30.591Z,61.38
2022-12-01T10:26:14.657Z,61.90
2022-12-01T10:28:50.467Z,63.20
2022-12-01T10:31:23.843Z,62.60
2022-12-01T10:34:14.223Z,65.88
2022-12-01T10:36:40.959Z,63.15
2022-12-01T10:39:13.539Z,62.42
2022-12-01T10:41:41.179Z,65.43
2022-12-01T10:44:09.352Z,61.63
2022-12-01T10:46:52.288Z,65.60
2022-12-01T10:49:19.605Z,64.03
2022-12-01T10:51:55.102Z,68.93
2022-12-01T10:54:23.838Z,65.03
2022-12-01T10:56:56.096Z,67.00
2022-12-01T10:59:27.005Z,67.22
2022-12-01T11:01:54.857Z,67.97
2022-12-01T11:04:30.585Z,66.10
2022-12-01T11:06:57.555Z,64.03
2022-12-01T11:09:28.023Z,59.50
2022-12-01T11:12:03.398Z,71.28
2022-12-01T11:14:49.443Z,59.00
2022-12-01T11:17:31.683Z,66.82
2022-12-01T11:19:59.217Z,58.33
2022-12-01T11:22:32.226Z,71.78
2022-12-01T11:25:05.154Z,70.13
2022-12-01T11:27:54.201Z,65.05
2022-12-01T11:30:24.681Z,64.80
2022-12-01T11:32:57.376Z,57.20
2022-12-01T11:35:28.103Z,63.15
2022-12-01T11:40:50.329Z,60.45
2022-12-01T11:43:21.418Z,53.83
2022-12-01T11:45:48.508Z,59.07
2022-12-01T11:48:21.043Z,55.95
2022-12-01T11:51:04.689Z,56.90
2022-12-01T11:53:34.642Z,54.22
2022-12-01T11:56:18.390Z,55.00
2022-12-01T11:58:47.700Z,56.53
2022-12-01T12:01:40.657Z,53.28
2022-12-01T12:04:20.496Z,57.58
2022-12-01T12:07:02.175Z,55.75
2022-12-01T12:09:52.705Z,55.63
2022-12-01T12:12:52.864Z,54.83
2022-12-01T12:15:44.277Z,52.78
2022-12-01T12:18:44.379Z,50.58
2022-12-01T12:21:35.363Z,51.65
2022-12-01T12:24:13.347Z,46.80
2022-12-01T12:26:49.037Z,46.92
2022-12-01T12:29:53.032Z,46.83
2022-12-01T12:32:32.345Z,47.15
2022-12-01T12:35:09.734Z,46.78
2022-12-01T12:37:54.563Z,49.03
2022-12-01T12:40:54.433Z,45.92
2022-12-01T12:43:56.425Z,44.97
2022-12-01T12:46:51.147Z,40.45
2022-12-01T12:49:40.747Z,48.67
2022-12-01T12:52:12.890Z,47.40
2022-12-01T12:54:50.458Z,45.63
2022-12-01T12:57:35.707Z,47.63
2022-12-01T13:00:05.166Z,53.72
2022-12-01T13:02:41.659Z,49.00
2022-12-01T13:05:38.565Z,50.05
2022-12-01T13:08:15.779Z,42.05
2022-12-01T13:11:10.302Z,41.22
2022-12-01T13:13:54.638Z,38.40
2022-12-01T13:16:26.713Z,43.15
2022-12-01T13:19:02.929Z,41.05
2022-12-01T13:21:36.952Z,45.30
2022-12-01T13:24:06.128Z,42.30
2022-12-01T13:26:36.227Z,42.47
2022-12-01T13:29:06.738Z,48.30
2022-12-01T13:31:46.361Z,44.75
2022-12-01T13:34:22.352Z,47.03
2022-12-01T13:36:53.890Z,45.63
2022-12-01T13:39:36.015Z,44.13
2022-12-01T13:42:25.151Z,44.95
2022-12-01T13:45:01.847Z,46.58
2022-12-01T13:47:39.618Z,40.92
2022-12-01T13:50:48.210Z,46.80
2022-12-01T13:53:25.171Z,44.03
2022-12-01T13:56:04.263Z,46.42
2022-12-01T13:58:33.898Z,49.03
2022-12-01T14:01:34.993Z,48.42
2022-12-01T14:04:10.549Z,42.35
2022-12-01T14:06:46.282Z,46.03
2022-12-01T14:09:31.326Z,41.05
2022-12-01T14:12:18.538Z,45.85
2022-12-01T14:14:53.629Z,38.13
2022-12-01T14:17:26.722Z,41.10
2022-12-01T14:19:54.206Z,36.90
2022-12-01T14:22:43.814Z,36.22
2022-12-01T14:25:22.475Z,40.25
2022-12-01T14:27:53.034Z,44.65
2022-12-01T14:30:41.885Z,39.08
2022-12-01T14:33:39.892Z,42.50
2022-12-01T14:36:19.071Z,39.30
2022-12-01T14:38:47.123Z,37.38
2022-12-01T14:41:25.834Z,36.50
2022-12-01T14:44:05.879Z,40.17
2022-12-01T14:46:39.650Z,36.55
2022-12-01T14:49:11.500Z,36.45
2022-12-01T14:51:44.329Z,37.45
2022-12-01T14:54:18.861Z,37.83
2022-12-01T14:56:48.013Z,36.40
2022-12-01T14:59:21.839Z,39.47
2022-12-01T15:01:51.665Z,41.47
2022-12-01T15:04:18.930Z,36.95
2022-12-01T15:06:46.141Z,36.58
2022-12-01T15:09:36.508Z,41.38
2022-12-01T15:12:07.650Z,37.30
2022-12-01T15:14:45.982Z,35.40
2022-12-01T15:17:30.189Z,38.90
2022-12-01T15:19:56.816Z,33.95
2022-12-01T15:22:27.601Z,37.60
2022-12-01T15:24:54.124Z,33.28
2022-12-01T15:27:31.653Z,38.42
2022-12-01T15:30:04.120Z,38.72
2022-12-01T15:32:33.875Z,37.97
2022-12-01T15:35:05.294Z,35.65
2022-12-01T15:37:41.647Z,37.95
2022-12-01T15:40:59.726Z,42.25
2022-12-01T15:43:04.330Z,36.63
2022-12-01T15:45:43.243Z,33.47
2022-12-01T15:48:18.253Z,37.92
2022-12-01T15:50:58.741Z,37.13
2022-12-01T15:53:29.577Z,34.63
2022-12-01T15:55:59.218Z,36.60
2022-12-01T15:58:32.882Z,42.13
2022-12-01T16:01:02.774Z,36.47
2022-12-01T16:03:29.795Z,41.63
2022-12-01T16:05:57.798Z,40.63
2022-12-01T16:08:27.663Z,34.08
2022-12-01T16:11:15.896Z,39.10
2022-12-01T16:13:59.601Z,35.55
2022-12-01T16:16:42.031Z,35.00
2022-12-01T16:19:11.747Z,34.40
2022-12-01T16:22:04.884Z,35.72
2022-12-01T16:24:37.598Z,32.88
2022-12-01T16:27:06.795Z,36.45
2022-12-01T16:29:50.489Z,35.78
2022-12-01T16:32:32.056Z,36.83
2022-12-01T16:34:58.867Z,36.88
2022-12-01T16:37:26.690Z,39.75
2022-12-01T16:39:53.530Z,39.42
2022-12-01T16:42:21.366Z,42.75
2022-12-01T16:44:49.395Z,42.47
2022-12-01T16:47:18.592Z,37.63
2022-12-01T16:49:45.304Z,41.35
2022-12-01T16:54:58.593Z,41.67
2022-12-01T16:57:25.207Z,43.88
2022-12-01T16:59:51.817Z,43.97
2022-12-01T17:02:18.433Z,56.55
2022-12-01T17:04:45.037Z,48.50
2022-12-01T17:07:11.599Z,47.55
2022-12-01T17:09:38.151Z,46.13
2022-12-01T17:12:05.030Z,48.75
2022-12-01T17:14:31.712Z,49.25
2022-12-01T17:16:58.388Z,47.67
2022-12-01T17:19:25.008Z,55.58
2022-12-01T17:21:52.550Z,52.22
2022-12-01T17:24:19.500Z,43.17
2022-12-01T17:26:46.177Z,46.97
2022-12-01T17:29:12.795Z,45.33
2022-12-01T17:31:39.448Z,50.83
2022-12-01T17:34:06.053Z,50.67
2022-12-01T17:36:32.616Z,51.63
2022-12-01T17:38:59.263Z,48.78
2022-12-01T17:41:32.127Z,48.95
2022-12-01T17:44:01.464Z,53.92
2022-12-01T17:46:28.178Z,59.63
2022-12-01T17:48:54.862Z,63.78
2022-12-01T17:51:21.554Z,70.10
2022-12-01T17:53:48.304Z,67.45
2022-12-01T17:56:17.330Z,64.40
2022-12-01T17:58:44.911Z,59.13
2022-12-01T18:01:17.395Z,60.95
2022-12-01T18:03:44.790Z,66.55
2022-12-01T18:06:12.279Z,59.47
2022-12-01T18:08:39.818Z,67.35
2022-12-01T18:11:09.990Z,61.10
2022-12-01T18:13:41.262Z,54.47
2022-12-01T18:16:22.532Z,52.47
2022-12-01T18:18:50.049Z,49.13
2022-12-01T18:21:18.853Z,57.72
2022-12-01T18:23:50.271Z,48.65
2022-12-01T18:26:17.325Z,52.28
2022-12-01T18:28:44.210Z,49.40
2022-12-01T18:31:13.510Z,45.88
2022-12-01T18:33:42.281Z,49.38
2022-12-01T18:36:20.486Z,46.55
2022-12-01T18:38:48.425Z,40.20
2022-12-01T18:41:15.899Z,42.10
2022-12-01T18:43:43.017Z,37.58
2022-12-01T18:46:11.883Z,44.90
2022-12-01T18:48:43.163Z,46.85
2022-12-01T18:51:10.677Z,43.38
2022-12-01T18:53:37.259Z,48.67
2022-12-01T18:56:05.978Z,47.70
2022-12-01T18:58:33.116Z,45.75
2022-12-01T19:01:00.918Z,48.38
2022-12-01T19:03:32.026Z,47.33
2022-12-01T19:05:59.093Z,47.00
2022-12-01T19:08:25.775Z,44.63
2022-12-01T19:11:03.584Z,47.08
2022-12-01T19:13:31.518Z,46.88
2022-12-01T19:15:58.485Z,49.25
2022-12-01T19:18:25.106Z,51.17
2022-12-01T19:20:51.655Z,57.70
2022-12-01T19:23:18.272Z,53.35
2022-12-01T19:25:44.919Z,64.60
2022-12-01T19:28:11.536Z,51.72
2022-12-01T19:30:40.321Z,54.58
2022-12-01T19:33:09.435Z,53.22
2022-12-01T19:35:36.184Z,49.63
2022-12-01T19:38:02.741Z,51.72
2022-12-01T19:40:29.296Z,49.63
2022-12-01T19:42:56.250Z,51.65
2022-12-01T19:45:22.870Z,44.63
2022-12-01T19:47:51.152Z,35.42
2022-12-01T19:50:17.857Z,46.45
2022-12-01T19:52:44.623Z,37.83
2022-12-01T19:55:11.238Z,33.17
2022-12-01T19:57:37.872Z,39.00
2022-12-01T20:00:04.898Z,30.17
2022-12-01T20:02:31.590Z,27.25
2022-12-01T20:04:58.230Z,29.08
2022-12-01T20:07:24.813Z,32.67
2022-12-01T20:09:51.359Z,34.67
2022-12-01T20:12:17.947Z,31.52
2022-12-01T20:14:44.561Z,29.48
2022-12-01T20:17:15.670Z,27.13
2022-12-01T20:19:42.672Z,33.08
2022-12-01T20:22:09.346Z,28.95
2022-12-01T20:24:39.451Z,35.78
2022-12-01T20:27:06.057Z,30.85
2022-12-01T20:29:32.606Z,34.83
2022-12-01T20:32:00.988Z,36.08
2022-12-01T20:34:31.702Z,37.28
2022-12-01T20:36:58.466Z,40.15
2022-12-01T20:39:26.908Z,36.83
2022-12-01T20:41:53.582Z,38.10
2022-12-01T20:44:20.512Z,40.55
2022-12-01T20:46:47.605Z,35.83
2022-12-01T20:49:16.121Z,39.17
2022-12-01T20:51:42.864Z,36.42
2022-12-01T20:54:29.190Z,33.30
2022-12-01T20:56:56.332Z,37.92
2022-12-01T20:59:23.008Z,35.08
2022-12-01T21:01:49.592Z,32.33
2022-12-01T21:04:16.230Z,38.17
2022-12-01T21:06:42.953Z,46.20
2022-12-01T21:09:09.721Z,43.97
2022-12-01T21:12:09.473Z,38.92
2022-12-01T21:14:41.617Z,45.70
2022-12-01T21:17:25.448Z,36.63
2022-12-01T21:20:17.939Z,41.60
2022-12-01T21:22:46.270Z,39.13
2022-12-01T21:25:18.808Z,36.33
2022-12-01T21:27:46.852Z,39.35
2022-12-01T21:30:29.366Z,43.15
2022-12-01T21:33:11.575Z,44.47
2022-12-01T21:38:11.323Z,36.85
2022-12-01T21:40:40.715Z,45.28
2022-12-01T21:43:22.519Z,49.45
2022-12-01T21:46:06.486Z,48.70
2022-12-01T21:48:36.679Z,42.88
2022-12-01T21:51:15.621Z,47.38
2022-12-01T21:53:42.240Z,48.67
2022-12-01T21:56:21.713Z,45.58
2022-12-01T21:58:49.403Z,47.15
2022-12-01T22:01:30.514Z,48.20
2022-12-01T22:04:01.993Z,39.65
2022-12-01T22:06:40.209Z,50.30
2022-12-01T22:09:31.729Z,47.95
2022-12-01T22:12:12.524Z,47.17
2022-12-01T22:14:39.144Z,51.45
2022-12-01T22:17:05.724Z,40.47
2022-12-01T22:19:34.574Z,47.05
2022-12-01T22:22:23.450Z,45.05
2022-12-01T22:24:56.391Z,43.53
2022-12-01T22:27:31.505Z,48.10
2022-12-01T22:30:02.750Z,50.08
2022-12-01T22:32:56.472Z,56.30
2022-12-01T22:35:27.540Z,46.85
2022-12-01T22:38:06.081Z,54.20
2022-12-01T22:40:41.165Z,56.88
2022-12-01T22:43:19.674Z,52.88
2022-12-01T22:45:50.939Z,65.88
2022-12-01T22:48:40.250Z,56.65
2022-12-01T22:51:12.874Z,56.50
2022-12-01T22:53:41.166Z,60.42
2022-12-01T22:56:39.623Z,59.97
2022-12-01T22:59:31.558Z,66.82
2022-12-01T23:02:01.197Z,67.30
2022-12-01T23:04:42.482Z,67.70
2022-12-01T23:07:28.510Z,69.85
2022-12-01T23:10:17.671Z,62.92
2022-12-01T23:12:46.595Z,73.80
2022-12-01T23:15:34.426Z,64.05
2022-12-01T23:18:18.755Z,69.30
2022-12-01T23:20:48.816Z,76.25
2022-12-01T23:23:18.890Z,76.55
2022-12-01T23:25:46.449Z,69.03
2022-12-01T23:28:13.806Z,68.97
2022-12-01T23:30:43.293Z,70.45
2022-12-01T23:33:20.646Z,75.88
2022-12-01T23:36:22.402Z,72.43
2022-12-01T23:38:57.023Z,70.10
2022-12-01T23:41:44.388Z,78.35
2022-12-01T23:44:21.213Z,75.93
2022-12-01T23:46:51.572Z,72.20
2022-12-01T23:49:25.480Z,77.50
2022-12-01T23:51:54.759Z,81.53
2022-12-01T23:54:26.978Z,71.60
2022-12-01T23:56:57.239Z,83.97
2022-12-01T23:59:24.739Z,76.55
